sensor_id;sensor_type;location;lat;lon;timestamp;temperature;humidity
77247;SHT35;66279;42.820;23.374;2023-08-06T00:00:06;19.47;80.88
77247;SHT35;66279;42.820;23.374;2023-08-06T00:02:32;19.38;80.83
77247;SHT35;66279;42.820;23.374;2023-08-06T00:04:58;19.38;80.34
77247;SHT35;66279;42.820;23.374;2023-08-06T00:07:23;19.35;81.38
77247;SHT35;66279;42.820;23.374;2023-08-06T00:09:49;19.17;83.05
77247;SHT35;66279;42.820;23.374;2023-08-06T00:12:14;19.25;83.69
77247;SHT35;66279;42.820;23.374;2023-08-06T00:14:40;19.17;82.92
77247;SHT35;66279;42.820;23.374;2023-08-06T00:17:05;19.00;82.94
77247;SHT35;66279;42.820;23.374;2023-08-06T00:19:31;19.01;84.31
77247;SHT35;66279;42.820;23.374;2023-08-06T00:21:57;19.15;83.60
77247;SHT35;66279;42.820;23.374;2023-08-06T00:24:23;19.11;84.04
77247;SHT35;66279;42.820;23.374;2023-08-06T00:26:48;18.97;84.78
77247;SHT35;66279;42.820;23.374;2023-08-06T00:29:14;18.97;85.15
77247;SHT35;66279;42.820;23.374;2023-08-06T00:31:39;18.97;82.47
77247;SHT35;66279;42.820;23.374;2023-08-06T00:34:05;19.03;81.79
77247;SHT35;66279;42.820;23.374;2023-08-06T00:36:30;19.12;82.07
77247;SHT35;66279;42.820;23.374;2023-08-06T00:38:56;19.15;84.67
77247;SHT35;66279;42.820;23.374;2023-08-06T00:41:22;19.24;84.75
77247;SHT35;66279;42.820;23.374;2023-08-06T00:43:47;19.25;81.66
77247;SHT35;66279;42.820;23.374;2023-08-06T00:46:13;19.32;82.75
77247;SHT35;66279;42.820;23.374;2023-08-06T00:48:40;19.36;82.88
77247;SHT35;66279;42.820;23.374;2023-08-06T00:51:06;19.30;82.17
77247;SHT35;66279;42.820;23.374;2023-08-06T00:53:31;19.18;83.63
77247;SHT35;66279;42.820;23.374;2023-08-06T00:55:58;19.24;84.29
77247;SHT35;66279;42.820;23.374;2023-08-06T00:58:23;19.28;84.02
77247;SHT35;66279;42.820;23.374;2023-08-06T01:00:49;19.32;83.37
77247;SHT35;66279;42.820;23.374;2023-08-06T01:03:15;19.34;83.73
77247;SHT35;66279;42.820;23.374;2023-08-06T01:05:41;19.30;83.74
77247;SHT35;66279;42.820;23.374;2023-08-06T01:08:21;19.24;84.86
77247;SHT35;66279;42.820;23.374;2023-08-06T01:15:58;19.27;83.86
77247;SHT35;66279;42.820;23.374;2023-08-06T01:18:27;19.22;83.99
77247;SHT35;66279;42.820;23.374;2023-08-06T01:20:52;19.18;84.53
77247;SHT35;66279;42.820;23.374;2023-08-06T01:23:19;19.21;84.00
77247;SHT35;66279;42.820;23.374;2023-08-06T01:28:40;19.18;83.94
77247;SHT35;66279;42.820;23.374;2023-08-06T01:31:08;19.17;85.18
77247;SHT35;66279;42.820;23.374;2023-08-06T01:33:40;19.15;84.45
77247;SHT35;66279;42.820;23.374;2023-08-06T01:36:09;19.21;84.44
77247;SHT35;66279;42.820;23.374;2023-08-06T01:38:34;19.22;84.46
77247;SHT35;66279;42.820;23.374;2023-08-06T01:41:00;19.30;83.38
77247;SHT35;66279;42.820;23.374;2023-08-06T01:43:25;19.31;82.85
77247;SHT35;66279;42.820;23.374;2023-08-06T01:45:51;19.32;84.12
77247;SHT35;66279;42.820;23.374;2023-08-06T01:48:16;19.28;84.37
77247;SHT35;66279;42.820;23.374;2023-08-06T01:50:42;19.32;84.11
77247;SHT35;66279;42.820;23.374;2023-08-06T01:53:07;19.34;83.69
77247;SHT35;66279;42.820;23.374;2023-08-06T01:55:33;19.35;84.60
77247;SHT35;66279;42.820;23.374;2023-08-06T01:57:58;19.34;84.32
77247;SHT35;66279;42.820;23.374;2023-08-06T02:00:24;19.27;83.91
77247;SHT35;66279;42.820;23.374;2023-08-06T02:02:49;19.27;83.98
77247;SHT35;66279;42.820;23.374;2023-08-06T02:05:15;19.27;84.81
77247;SHT35;66279;42.820;23.374;2023-08-06T02:07:40;19.25;84.92
77247;SHT35;66279;42.820;23.374;2023-08-06T02:10:06;19.27;83.98
77247;SHT35;66279;42.820;23.374;2023-08-06T02:12:32;19.30;83.78
77247;SHT35;66279;42.820;23.374;2023-08-06T02:14:58;19.31;83.07
77247;SHT35;66279;42.820;23.374;2023-08-06T02:17:23;19.35;84.31
77247;SHT35;66279;42.820;23.374;2023-08-06T02:19:48;19.38;84.73
77247;SHT35;66279;42.820;23.374;2023-08-06T02:22:14;19.38;84.76
77247;SHT35;66279;42.820;23.374;2023-08-06T02:24:40;19.38;84.88
77247;SHT35;66279;42.820;23.374;2023-08-06T02:27:05;19.36;85.32
77247;SHT35;66279;42.820;23.374;2023-08-06T02:29:31;19.39;84.53
77247;SHT35;66279;42.820;23.374;2023-08-06T02:31:56;19.39;84.88
77247;SHT35;66279;42.820;23.374;2023-08-06T02:34:22;19.42;84.25
77247;SHT35;66279;42.820;23.374;2023-08-06T02:36:47;19.42;84.86
77247;SHT35;66279;42.820;23.374;2023-08-06T02:39:13;19.32;84.95
77247;SHT35;66279;42.820;23.374;2023-08-06T02:41:38;19.20;85.18
77247;SHT35;66279;42.820;23.374;2023-08-06T02:44:04;19.15;85.71
77247;SHT35;66279;42.820;23.374;2023-08-06T02:46:30;19.12;85.56
77247;SHT35;66279;42.820;23.374;2023-08-06T02:48:55;19.08;85.95
77247;SHT35;66279;42.820;23.374;2023-08-06T02:51:20;18.99;85.94
77247;SHT35;66279;42.820;23.374;2023-08-06T02:53:47;18.84;87.47
77247;SHT35;66279;42.820;23.374;2023-08-06T02:56:13;18.64;87.48
77247;SHT35;66279;42.820;23.374;2023-08-06T02:58:39;18.74;87.71
77247;SHT35;66279;42.820;23.374;2023-08-06T03:01:06;18.83;87.01
77247;SHT35;66279;42.820;23.374;2023-08-06T03:03:32;18.90;86.84
77247;SHT35;66279;42.820;23.374;2023-08-06T03:05:58;18.87;86.88
77247;SHT35;66279;42.820;23.374;2023-08-06T03:08:24;18.93;86.62
77247;SHT35;66279;42.820;23.374;2023-08-06T03:10:50;19.00;86.48
77247;SHT35;66279;42.820;23.374;2023-08-06T03:13:19;18.96;86.94
77247;SHT35;66279;42.820;23.374;2023-08-06T03:15:58;19.01;87.00
77247;SHT35;66279;42.820;23.374;2023-08-06T03:18:24;19.01;86.37
77247;SHT35;66279;42.820;23.374;2023-08-06T03:20:51;18.94;86.50
77247;SHT35;66279;42.820;23.374;2023-08-06T03:23:17;18.89;88.00
77247;SHT35;66279;42.820;23.374;2023-08-06T03:25:43;18.83;87.69
77247;SHT35;66279;42.820;23.374;2023-08-06T03:28:08;18.80;87.58
77247;SHT35;66279;42.820;23.374;2023-08-06T03:30:34;18.66;87.63
77247;SHT35;66279;42.820;23.374;2023-08-06T03:32:59;18.43;88.78
77247;SHT35;66279;42.820;23.374;2023-08-06T03:35:25;18.29;88.95
77247;SHT35;66279;42.820;23.374;2023-08-06T03:37:50;18.32;88.36
77247;SHT35;66279;42.820;23.374;2023-08-06T03:40:16;18.43;87.81
77247;SHT35;66279;42.820;23.374;2023-08-06T03:42:41;18.46;88.06
77247;SHT35;66279;42.820;23.374;2023-08-06T03:45:07;18.43;88.87
77247;SHT35;66279;42.820;23.374;2023-08-06T03:47:33;18.36;89.72
77247;SHT35;66279;42.820;23.374;2023-08-06T03:49:58;18.41;88.48
77247;SHT35;66279;42.820;23.374;2023-08-06T03:52:24;18.41;88.24
77247;SHT35;66279;42.820;23.374;2023-08-06T03:54:49;18.46;88.49
77247;SHT35;66279;42.820;23.374;2023-08-06T03:57:15;18.52;88.58
77247;SHT35;66279;42.820;23.374;2023-08-06T03:59:41;18.48;88.70
77247;SHT35;66279;42.820;23.374;2023-08-06T04:02:06;18.51;88.43
77247;SHT35;66279;42.820;23.374;2023-08-06T04:04:32;18.56;88.18
77247;SHT35;66279;42.820;23.374;2023-08-06T04:06:57;18.62;88.38
77247;SHT35;66279;42.820;23.374;2023-08-06T04:09:23;18.70;88.13
77247;SHT35;66279;42.820;23.374;2023-08-06T04:11:48;18.81;87.83
77247;SHT35;66279;42.820;23.374;2023-08-06T04:14:14;18.79;88.44
77247;SHT35;66279;42.820;23.374;2023-08-06T04:16:39;18.80;88.32
77247;SHT35;66279;42.820;23.374;2023-08-06T04:19:05;18.84;87.89
77247;SHT35;66279;42.820;23.374;2023-08-06T04:21:31;18.83;88.91
77247;SHT35;66279;42.820;23.374;2023-08-06T04:23:56;18.90;88.71
77247;SHT35;66279;42.820;23.374;2023-08-06T04:26:22;18.90;87.61
77247;SHT35;66279;42.820;23.374;2023-08-06T04:28:47;18.81;87.64
77247;SHT35;66279;42.820;23.374;2023-08-06T04:31:14;18.86;88.17
77247;SHT35;66279;42.820;23.374;2023-08-06T04:33:40;18.97;88.19
77247;SHT35;66279;42.820;23.374;2023-08-06T04:36:06;19.01;86.24
77247;SHT35;66279;42.820;23.374;2023-08-06T04:38:32;18.99;86.51
77247;SHT35;66279;42.820;23.374;2023-08-06T04:40:57;18.99;86.71
77247;SHT35;66279;42.820;23.374;2023-08-06T04:43:23;19.03;86.90
77247;SHT35;66279;42.820;23.374;2023-08-06T04:45:50;19.01;86.68
77247;SHT35;66279;42.820;23.374;2023-08-06T04:48:16;18.97;87.26
77247;SHT35;66279;42.820;23.374;2023-08-06T04:50:49;18.96;87.27
77247;SHT35;66279;42.820;23.374;2023-08-06T04:53:15;18.84;87.39
77247;SHT35;66279;42.820;23.374;2023-08-06T04:55:41;18.86;87.43
77247;SHT35;66279;42.820;23.374;2023-08-06T04:58:07;18.89;87.26
77247;SHT35;66279;42.820;23.374;2023-08-06T05:00:33;18.89;88.10
77247;SHT35;66279;42.820;23.374;2023-08-06T05:03:01;18.83;88.96
77247;SHT35;66279;42.820;23.374;2023-08-06T05:05:28;18.91;88.42
77247;SHT35;66279;42.820;23.374;2023-08-06T05:07:55;18.97;88.13
77247;SHT35;66279;42.820;23.374;2023-08-06T05:10:27;19.10;87.99
77247;SHT35;66279;42.820;23.374;2023-08-06T05:12:53;19.21;87.78
77247;SHT35;66279;42.820;23.374;2023-08-06T05:15:19;19.32;86.85
77247;SHT35;66279;42.820;23.374;2023-08-06T05:17:45;19.41;86.93
77247;SHT35;66279;42.820;23.374;2023-08-06T05:20:11;19.38;86.97
77247;SHT35;66279;42.820;23.374;2023-08-06T05:22:37;19.39;87.63
77247;SHT35;66279;42.820;23.374;2023-08-06T05:25:02;19.47;87.33
77247;SHT35;66279;42.820;23.374;2023-08-06T05:27:28;19.55;86.48
77247;SHT35;66279;42.820;23.374;2023-08-06T05:29:55;19.55;86.60
77247;SHT35;66279;42.820;23.374;2023-08-06T05:32:23;19.59;85.99
77247;SHT35;66279;42.820;23.374;2023-08-06T05:34:49;19.58;85.99
77247;SHT35;66279;42.820;23.374;2023-08-06T05:37:14;19.61;85.03
77247;SHT35;66279;42.820;23.374;2023-08-06T05:39:40;19.57;86.15
77247;SHT35;66279;42.820;23.374;2023-08-06T05:42:06;19.62;85.45
77247;SHT35;66279;42.820;23.374;2023-08-06T05:44:32;19.63;85.15
77247;SHT35;66279;42.820;23.374;2023-08-06T05:46:58;19.70;84.75
77247;SHT35;66279;42.820;23.374;2023-08-06T05:49:23;19.75;85.06
77247;SHT35;66279;42.820;23.374;2023-08-06T05:51:48;19.72;85.69
77247;SHT35;66279;42.820;23.374;2023-08-06T05:54:14;19.83;85.04
77247;SHT35;66279;42.820;23.374;2023-08-06T05:56:39;19.87;84.24
77247;SHT35;66279;42.820;23.374;2023-08-06T05:59:05;20.01;84.46
77247;SHT35;66279;42.820;23.374;2023-08-06T06:01:30;20.21;84.57
77247;SHT35;66279;42.820;23.374;2023-08-06T06:03:56;20.45;83.72
77247;SHT35;66279;42.820;23.374;2023-08-06T06:06:21;20.57;81.54
77247;SHT35;66279;42.820;23.374;2023-08-06T06:08:47;20.71;83.24
77247;SHT35;66279;42.820;23.374;2023-08-06T06:11:13;20.84;82.59
77247;SHT35;66279;42.820;23.374;2023-08-06T06:13:38;20.95;82.38
77247;SHT35;66279;42.820;23.374;2023-08-06T06:16:04;21.22;83.00
77247;SHT35;66279;42.820;23.374;2023-08-06T06:18:30;21.36;81.03
77247;SHT35;66279;42.820;23.374;2023-08-06T06:20:56;21.47;80.53
77247;SHT35;66279;42.820;23.374;2023-08-06T06:23:21;21.61;79.83
77247;SHT35;66279;42.820;23.374;2023-08-06T06:25:48;21.67;77.20
77247;SHT35;66279;42.820;23.374;2023-08-06T06:28:14;21.64;77.73
77247;SHT35;66279;42.820;23.374;2023-08-06T06:30:42;21.60;79.30
77247;SHT35;66279;42.820;23.374;2023-08-06T06:33:07;21.60;78.93
77247;SHT35;66279;42.820;23.374;2023-08-06T06:35:33;21.63;77.08
77247;SHT35;66279;42.820;23.374;2023-08-06T06:38:04;21.67;75.84
77247;SHT35;66279;42.820;23.374;2023-08-06T06:40:32;21.63;76.72
77247;SHT35;66279;42.820;23.374;2023-08-06T06:42:58;21.87;76.72
77247;SHT35;66279;42.820;23.374;2023-08-06T06:45:24;21.93;75.00
77247;SHT35;66279;42.820;23.374;2023-08-06T06:47:49;21.83;74.52
77247;SHT35;66279;42.820;23.374;2023-08-06T06:50:15;21.73;74.96
77247;SHT35;66279;42.820;23.374;2023-08-06T06:52:41;21.77;73.78
77247;SHT35;66279;42.820;23.374;2023-08-06T06:55:06;21.84;75.78
77247;SHT35;66279;42.820;23.374;2023-08-06T06:57:32;21.88;73.84
77247;SHT35;66279;42.820;23.374;2023-08-06T06:59:57;21.93;74.22
77247;SHT35;66279;42.820;23.374;2023-08-06T07:02:23;22.05;74.33
77247;SHT35;66279;42.820;23.374;2023-08-06T07:04:50;22.18;72.23
77247;SHT35;66279;42.820;23.374;2023-08-06T07:07:15;22.51;73.63
77247;SHT35;66279;42.820;23.374;2023-08-06T07:09:41;22.56;68.62
77247;SHT35;66279;42.820;23.374;2023-08-06T07:12:07;22.82;68.69
77247;SHT35;66279;42.820;23.374;2023-08-06T07:14:32;22.83;67.24
77247;SHT35;66279;42.820;23.374;2023-08-06T07:16:58;23.04;67.85
77247;SHT35;66279;42.820;23.374;2023-08-06T07:19:23;23.11;67.48
77247;SHT35;66279;42.820;23.374;2023-08-06T07:21:49;23.20;65.66
77247;SHT35;66279;42.820;23.374;2023-08-06T07:24:15;23.33;65.87
77247;SHT35;66279;42.820;23.374;2023-08-06T07:26:40;23.59;63.52
77247;SHT35;66279;42.820;23.374;2023-08-06T07:29:06;23.79;63.99
77247;SHT35;66279;42.820;23.374;2023-08-06T07:31:31;24.12;62.62
77247;SHT35;66279;42.820;23.374;2023-08-06T07:33:57;24.24;61.67
77247;SHT35;66279;42.820;23.374;2023-08-06T07:36:22;24.30;60.89
77247;SHT35;66279;42.820;23.374;2023-08-06T07:38:48;24.67;63.98
77247;SHT35;66279;42.820;23.374;2023-08-06T07:41:17;24.90;58.89
77247;SHT35;66279;42.820;23.374;2023-08-06T07:43:42;25.20;60.72
77247;SHT35;66279;42.820;23.374;2023-08-06T07:46:08;25.32;56.81
77247;SHT35;66279;42.820;23.374;2023-08-06T07:48:33;25.45;56.58
77247;SHT35;66279;42.820;23.374;2023-08-06T07:50:59;25.36;58.96
77247;SHT35;66279;42.820;23.374;2023-08-06T07:53:25;25.02;56.13
77247;SHT35;66279;42.820;23.374;2023-08-06T07:55:57;25.25;56.99
77247;SHT35;66279;42.820;23.374;2023-08-06T07:58:24;25.32;55.32
77247;SHT35;66279;42.820;23.374;2023-08-06T08:00:50;25.62;56.31
77247;SHT35;66279;42.820;23.374;2023-08-06T08:03:16;25.56;55.55
77247;SHT35;66279;42.820;23.374;2023-08-06T08:05:43;25.51;56.19
77247;SHT35;66279;42.820;23.374;2023-08-06T08:08:08;25.71;56.14
77247;SHT35;66279;42.820;23.374;2023-08-06T08:10:34;25.81;55.46
77247;SHT35;66279;42.820;23.374;2023-08-06T08:13:01;25.86;55.91
77247;SHT35;66279;42.820;23.374;2023-08-06T08:15:28;25.80;54.20
77247;SHT35;66279;42.820;23.374;2023-08-06T08:17:54;25.83;52.98
77247;SHT35;66279;42.820;23.374;2023-08-06T08:20:20;25.80;55.14
77247;SHT35;66279;42.820;23.374;2023-08-06T08:22:46;25.80;53.38
77247;SHT35;66279;42.820;23.374;2023-08-06T08:25:12;25.83;53.45
77247;SHT35;66279;42.820;23.374;2023-08-06T08:27:37;26.11;51.53
77247;SHT35;66279;42.820;23.374;2023-08-06T08:30:03;26.38;53.54
77247;SHT35;66279;42.820;23.374;2023-08-06T08:32:29;26.27;52.51
77247;SHT35;66279;42.820;23.374;2023-08-06T08:34:55;26.69;50.96
77247;SHT35;66279;42.820;23.374;2023-08-06T08:37:20;26.86;51.03
77247;SHT35;66279;42.820;23.374;2023-08-06T08:39:49;26.96;50.90
77247;SHT35;66279;42.820;23.374;2023-08-06T08:42:15;27.17;51.09
77247;SHT35;66279;42.820;23.374;2023-08-06T08:44:42;27.03;51.46
77247;SHT35;66279;42.820;23.374;2023-08-06T08:47:08;27.04;49.92
77247;SHT35;66279;42.820;23.374;2023-08-06T08:49:36;27.33;49.96
77247;SHT35;66279;42.820;23.374;2023-08-06T08:52:03;27.68;51.21
77247;SHT35;66279;42.820;23.374;2023-08-06T08:54:33;28.16;48.95
77247;SHT35;66279;42.820;23.374;2023-08-06T08:56:59;28.33;48.11
77247;SHT35;66279;42.820;23.374;2023-08-06T08:59:26;28.26;47.32
77247;SHT35;66279;42.820;23.374;2023-08-06T09:01:53;28.59;47.59
77247;SHT35;66279;42.820;23.374;2023-08-06T09:04:20;28.29;46.41
77247;SHT35;66279;42.820;23.374;2023-08-06T09:06:54;27.95;47.50
77247;SHT35;66279;42.820;23.374;2023-08-06T09:09:33;27.41;47.85
77247;SHT35;66279;42.820;23.374;2023-08-06T09:12:07;27.89;49.44
77247;SHT35;66279;42.820;23.374;2023-08-06T09:14:36;28.23;47.94
77247;SHT35;66279;42.820;23.374;2023-08-06T09:17:02;27.91;47.91
77247;SHT35;66279;42.820;23.374;2023-08-06T09:19:27;27.98;47.37
77247;SHT35;66279;42.820;23.374;2023-08-06T09:21:55;28.19;47.48
77247;SHT35;66279;42.820;23.374;2023-08-06T09:24:21;28.22;48.15
77247;SHT35;66279;42.820;23.374;2023-08-06T09:26:47;28.46;48.17
77247;SHT35;66279;42.820;23.374;2023-08-06T09:29:13;28.73;47.67
77247;SHT35;66279;42.820;23.374;2023-08-06T09:31:42;29.10;47.19
77247;SHT35;66279;42.820;23.374;2023-08-06T09:34:18;28.77;45.44
77247;SHT35;66279;42.820;23.374;2023-08-06T09:36:51;28.91;47.44
77247;SHT35;66279;42.820;23.374;2023-08-06T09:39:22;28.94;47.71
77247;SHT35;66279;42.820;23.374;2023-08-06T09:41:47;28.80;45.83
77247;SHT35;66279;42.820;23.374;2023-08-06T09:44:17;29.11;47.08
77247;SHT35;66279;42.820;23.374;2023-08-06T09:46:47;29.16;45.96
77247;SHT35;66279;42.820;23.374;2023-08-06T09:49:13;29.12;45.26
77247;SHT35;66279;42.820;23.374;2023-08-06T09:51:39;29.31;46.02
77247;SHT35;66279;42.820;23.374;2023-08-06T09:54:06;29.49;45.68
77247;SHT35;66279;42.820;23.374;2023-08-06T09:56:33;29.74;45.48
77247;SHT35;66279;42.820;23.374;2023-08-06T09:59:04;29.90;43.84
77247;SHT35;66279;42.820;23.374;2023-08-06T10:01:33;29.84;43.96
77247;SHT35;66279;42.820;23.374;2023-08-06T10:04:00;29.73;43.01
77247;SHT35;66279;42.820;23.374;2023-08-06T10:06:28;29.97;43.83
77247;SHT35;66279;42.820;23.374;2023-08-06T10:08:53;30.13;43.38
77247;SHT35;66279;42.820;23.374;2023-08-06T10:11:21;30.17;42.30
77247;SHT35;66279;42.820;23.374;2023-08-06T10:13:50;30.03;42.93
77247;SHT35;66279;42.820;23.374;2023-08-06T10:16:18;29.94;42.60
77247;SHT35;66279;42.820;23.374;2023-08-06T10:18:45;29.97;42.67
77247;SHT35;66279;42.820;23.374;2023-08-06T10:21:12;30.07;42.82
77247;SHT35;66279;42.820;23.374;2023-08-06T10:23:40;29.80;43.47
77247;SHT35;66279;42.820;23.374;2023-08-06T10:26:06;29.58;41.14
77247;SHT35;66279;42.820;23.374;2023-08-06T10:28:39;29.46;42.82
77247;SHT35;66279;42.820;23.374;2023-08-06T10:31:05;29.21;42.48
77247;SHT35;66279;42.820;23.374;2023-08-06T10:33:45;28.74;43.15
77247;SHT35;66279;42.820;23.374;2023-08-06T10:36:11;28.49;42.67
77247;SHT35;66279;42.820;23.374;2023-08-06T10:38:50;28.17;43.75
77247;SHT35;66279;42.820;23.374;2023-08-06T10:41:28;28.09;44.47
77247;SHT35;66279;42.820;23.374;2023-08-06T10:44:21;27.81;44.51
77247;SHT35;66279;42.820;23.374;2023-08-06T10:46:46;27.99;44.96
77247;SHT35;66279;42.820;23.374;2023-08-06T10:49:15;27.91;44.17
77247;SHT35;66279;42.820;23.374;2023-08-06T10:51:43;27.95;44.71
77247;SHT35;66279;42.820;23.374;2023-08-06T10:54:09;27.81;45.12
77247;SHT35;66279;42.820;23.374;2023-08-06T10:56:39;28.06;43.88
77247;SHT35;66279;42.820;23.374;2023-08-06T10:59:06;27.96;45.49
77247;SHT35;66279;42.820;23.374;2023-08-06T11:01:32;28.09;44.90
77247;SHT35;66279;42.820;23.374;2023-08-06T11:04:02;28.25;45.10
77247;SHT35;66279;42.820;23.374;2023-08-06T11:06:27;28.25;46.05
77247;SHT35;66279;42.820;23.374;2023-08-06T11:08:54;28.17;45.36
77247;SHT35;66279;42.820;23.374;2023-08-06T11:11:20;27.92;44.97
77247;SHT35;66279;42.820;23.374;2023-08-06T11:13:47;27.88;45.56
77247;SHT35;66279;42.820;23.374;2023-08-06T11:16:18;27.95;43.27
77247;SHT35;66279;42.820;23.374;2023-08-06T11:18:44;27.85;43.67
77247;SHT35;66279;42.820;23.374;2023-08-06T11:21:10;27.74;43.48
77247;SHT35;66279;42.820;23.374;2023-08-06T11:23:37;27.61;44.52
77247;SHT35;66279;42.820;23.374;2023-08-06T11:26:03;27.54;43.90
77247;SHT35;66279;42.820;23.374;2023-08-06T11:28:29;27.78;44.10
77247;SHT35;66279;42.820;23.374;2023-08-06T11:30:55;27.82;44.36
77247;SHT35;66279;42.820;23.374;2023-08-06T11:33:23;27.81;44.67
77247;SHT35;66279;42.820;23.374;2023-08-06T11:35:51;28.01;44.32
77247;SHT35;66279;42.820;23.374;2023-08-06T11:38:17;27.99;43.80
77247;SHT35;66279;42.820;23.374;2023-08-06T11:40:47;28.35;41.57
77247;SHT35;66279;42.820;23.374;2023-08-06T11:43:13;28.36;41.26
77247;SHT35;66279;42.820;23.374;2023-08-06T11:45:40;28.70;41.36
77247;SHT35;66279;42.820;23.374;2023-08-06T11:48:06;28.94;40.21
77247;SHT35;66279;42.820;23.374;2023-08-06T11:50:36;29.08;41.95
77247;SHT35;66279;42.820;23.374;2023-08-06T11:53:03;29.28;41.65
77247;SHT35;66279;42.820;23.374;2023-08-06T11:55:29;29.65;41.49
77247;SHT35;66279;42.820;23.374;2023-08-06T11:57:55;29.93;40.62
77247;SHT35;66279;42.820;23.374;2023-08-06T12:00:23;30.31;39.13
77247;SHT35;66279;42.820;23.374;2023-08-06T12:02:50;30.44;36.82
77247;SHT35;66279;42.820;23.374;2023-08-06T12:05:18;30.65;36.80
77247;SHT35;66279;42.820;23.374;2023-08-06T12:07:49;30.57;38.60
77247;SHT35;66279;42.820;23.374;2023-08-06T12:10:16;30.57;38.08
77247;SHT35;66279;42.820;23.374;2023-08-06T12:12:41;30.75;39.08
77247;SHT35;66279;42.820;23.374;2023-08-06T12:15:08;30.67;37.88
77247;SHT35;66279;42.820;23.374;2023-08-06T12:17:35;30.88;37.68
77247;SHT35;66279;42.820;23.374;2023-08-06T12:20:02;30.88;37.58
77247;SHT35;66279;42.820;23.374;2023-08-06T12:22:29;30.58;38.97
77247;SHT35;66279;42.820;23.374;2023-08-06T12:25:04;30.76;35.49
77247;SHT35;66279;42.820;23.374;2023-08-06T12:27:39;30.95;37.58
77247;SHT35;66279;42.820;23.374;2023-08-06T12:30:06;31.41;36.43
77247;SHT35;66279;42.820;23.374;2023-08-06T12:32:31;31.22;36.79
77247;SHT35;66279;42.820;23.374;2023-08-06T12:34:57;31.82;37.01
77247;SHT35;66279;42.820;23.374;2023-08-06T12:37:24;31.81;34.32
77247;SHT35;66279;42.820;23.374;2023-08-06T12:39:50;31.66;34.90
77247;SHT35;66279;42.820;23.374;2023-08-06T12:42:15;31.06;35.96
77247;SHT35;66279;42.820;23.374;2023-08-06T12:44:47;30.61;34.95
77247;SHT35;66279;42.820;23.374;2023-08-06T12:47:13;30.54;34.42
77247;SHT35;66279;42.820;23.374;2023-08-06T12:49:39;30.65;33.99
77247;SHT35;66279;42.820;23.374;2023-08-06T12:52:04;30.85;34.85
77247;SHT35;66279;42.820;23.374;2023-08-06T12:54:32;30.57;33.63
77247;SHT35;66279;42.820;23.374;2023-08-06T12:57:03;30.55;35.55
77247;SHT35;66279;42.820;23.374;2023-08-06T12:59:29;30.61;35.70
77247;SHT35;66279;42.820;23.374;2023-08-06T13:01:54;30.20;35.26
77247;SHT35;66279;42.820;23.374;2023-08-06T13:04:20;29.91;35.42
77247;SHT35;66279;42.820;23.374;2023-08-06T13:06:46;30.69;36.09
77247;SHT35;66279;42.820;23.374;2023-08-06T13:09:13;31.03;36.05
77247;SHT35;66279;42.820;23.374;2023-08-06T13:11:39;30.74;35.87
77247;SHT35;66279;42.820;23.374;2023-08-06T13:14:07;30.79;35.63
77247;SHT35;66279;42.820;23.374;2023-08-06T13:16:33;30.67;35.63
77247;SHT35;66279;42.820;23.374;2023-08-06T13:18:59;30.80;35.50
77247;SHT35;66279;42.820;23.374;2023-08-06T13:21:32;30.95;35.65
77247;SHT35;66279;42.820;23.374;2023-08-06T13:23:59;31.09;34.39
77247;SHT35;66279;42.820;23.374;2023-08-06T13:26:24;30.76;36.24
77247;SHT35;66279;42.820;23.374;2023-08-06T13:28:50;30.54;36.64
77247;SHT35;66279;42.820;23.374;2023-08-06T13:31:16;30.76;36.44
77247;SHT35;66279;42.820;23.374;2023-08-06T13:33:41;31.12;36.64
77247;SHT35;66279;42.820;23.374;2023-08-06T13:36:07;31.30;36.59
77247;SHT35;66279;42.820;23.374;2023-08-06T13:38:33;31.08;34.85
77247;SHT35;66279;42.820;23.374;2023-08-06T13:40:59;30.62;35.89
77247;SHT35;66279;42.820;23.374;2023-08-06T13:43:24;30.76;36.23
77247;SHT35;66279;42.820;23.374;2023-08-06T13:45:52;31.00;36.07
77247;SHT35;66279;42.820;23.374;2023-08-06T13:48:17;31.54;36.66
77247;SHT35;66279;42.820;23.374;2023-08-06T13:50:43;31.40;36.16
77247;SHT35;66279;42.820;23.374;2023-08-06T13:53:10;31.15;37.46
77247;SHT35;66279;42.820;23.374;2023-08-06T13:55:44;31.41;36.10
77247;SHT35;66279;42.820;23.374;2023-08-06T13:58:10;31.25;36.93
77247;SHT35;66279;42.820;23.374;2023-08-06T14:00:36;30.55;36.65
77247;SHT35;66279;42.820;23.374;2023-08-06T14:03:01;30.82;36.46
77247;SHT35;66279;42.820;23.374;2023-08-06T14:05:27;31.26;37.40
77247;SHT35;66279;42.820;23.374;2023-08-06T14:07:53;31.33;37.50
77247;SHT35;66279;42.820;23.374;2023-08-06T14:10:18;31.53;35.79
77247;SHT35;66279;42.820;23.374;2023-08-06T14:12:44;31.78;35.99
77247;SHT35;66279;42.820;23.374;2023-08-06T14:15:10;31.87;35.29
77247;SHT35;66279;42.820;23.374;2023-08-06T14:17:36;31.70;36.10
77247;SHT35;66279;42.820;23.374;2023-08-06T14:20:02;31.64;36.71
77247;SHT35;66279;42.820;23.374;2023-08-06T14:22:32;31.73;35.40
77247;SHT35;66279;42.820;23.374;2023-08-06T14:24:58;32.14;35.41
77247;SHT35;66279;42.820;23.374;2023-08-06T14:27:24;32.02;35.95
77247;SHT35;66279;42.820;23.374;2023-08-06T14:29:49;31.77;35.83
77247;SHT35;66279;42.820;23.374;2023-08-06T14:32:15;31.51;36.32
77247;SHT35;66279;42.820;23.374;2023-08-06T14:34:43;31.36;36.59
77247;SHT35;66279;42.820;23.374;2023-08-06T14:37:09;30.99;35.82
77247;SHT35;66279;42.820;23.374;2023-08-06T14:39:35;31.09;37.53
77247;SHT35;66279;42.820;23.374;2023-08-06T14:42:00;31.25;37.24
77247;SHT35;66279;42.820;23.374;2023-08-06T14:44:26;31.25;37.38
77247;SHT35;66279;42.820;23.374;2023-08-06T14:46:51;31.12;37.19
77247;SHT35;66279;42.820;23.374;2023-08-06T14:49:17;31.23;36.92
77247;SHT35;66279;42.820;23.374;2023-08-06T14:51:43;31.26;36.57
77247;SHT35;66279;42.820;23.374;2023-08-06T14:54:08;31.12;36.69
77247;SHT35;66279;42.820;23.374;2023-08-06T14:56:34;31.22;37.78
77247;SHT35;66279;42.820;23.374;2023-08-06T14:58:59;31.29;37.10
77247;SHT35;66279;42.820;23.374;2023-08-06T15:01:25;31.27;36.45
77247;SHT35;66279;42.820;23.374;2023-08-06T15:03:50;31.34;37.41
77247;SHT35;66279;42.820;23.374;2023-08-06T15:06:16;31.31;37.55
77247;SHT35;66279;42.820;23.374;2023-08-06T15:08:43;31.26;36.54
77247;SHT35;66279;42.820;23.374;2023-08-06T15:11:13;31.40;37.58
77247;SHT35;66279;42.820;23.374;2023-08-06T15:13:39;31.08;37.13
77247;SHT35;66279;42.820;23.374;2023-08-06T15:16:04;31.16;37.73
77247;SHT35;66279;42.820;23.374;2023-08-06T15:18:30;31.29;36.93